Charlemont, Massachusetts
Current Conditions -  °F | °C
As of 10:52 AM on Monday 26 Jan 2015 (Local Time) from KAQW Reporting Station
Overcast Overcast  
Wind Chill:   Ceiling: 6500
Heat Index: 18°   Visibility: 10mi
Dew Point: -6°   Wind: 13mph
Humidity: 35%   Direction: 110°ESE
Pressure: 30.05"   Gusts: NA
Location:  42.63°N, 72.87°W
Report Text: KAQW 261552Z AUTO 11011KT 10SM OVC065 M08/M21 A3005 RMK AO2 SLP191 T10781211
Loading
Personal Weather Stations






























Interactive Weather Map New forecast layout! Learn more

10-Day Weather Forecast

Advertisements
Track Severe Weather on mobile